Time;durP1;ratioP1;P1;durP2;ratioP2;P2;SDS_P1;SDS_P2;PMS_P1;PMS_P2;Temp;Humidity;BMP_temperature;BMP_pressure;BME280_temperature;BME280_humidity;BME280_pressure;Samples;Min_cycle;Max_cycle;Signal;HPM_P1;HPM_P2
2022/08/27 00:00:40;;;;;;;2.45;0.45;;;18.10;99.90;;;;;;4976074;28;20499;-82
2022/08/27 00:03:06;;;;;;;5.38;0.60;;;18.10;99.90;;;;;;4975413;28;20121;-82
2022/08/27 00:05:32;;;;;;;3.90;0.70;;;18.10;99.90;;;;;;4975593;28;20082;-82
2022/08/27 00:07:57;;;;;;;1.38;0.50;;;18.10;99.90;;;;;;4976193;28;20047;-82
2022/08/27 00:10:26;;;;;;;3.17;0.70;;;18.10;99.90;;;;;;4976297;28;20137;-82
2022/08/27 00:12:54;;;;;;;2.17;0.43;;;18.00;99.90;;;;;;4976116;28;20043;-81
2022/08/27 00:15:20;;;;;;;2.47;0.50;;;18.20;99.90;;;;;;4974633;28;20062;-80
2022/08/27 00:17:46;;;;;;;4.28;0.60;;;18.00;99.90;;;;;;4976132;28;20047;-83
2022/08/27 00:20:14;;;;;;;3.10;0.85;;;18.20;99.90;;;;;;4974007;28;20558;-82
2022/08/27 00:22:40;;;;;;;1.88;0.40;;;18.00;99.90;;;;;;4975854;28;20043;-81
2022/08/27 00:25:06;;;;;;;1.83;0.50;;;18.20;99.90;;;;;;4975816;28;20042;-82
2022/08/27 00:27:32;;;;;;;3.35;0.77;;;18.00;99.90;;;;;;4973993;28;20050;-81
2022/08/27 00:29:58;;;;;;;3.92;0.47;;;18.10;99.90;;;;;;4974563;28;20046;-81
2022/08/27 00:32:24;;;;;;;2.50;0.50;;;18.00;99.90;;;;;;4974737;28;20047;-81
2022/08/27 00:34:51;;;;;;;6.03;0.63;;;17.90;99.90;;;;;;4974705;28;20051;-81
2022/08/27 00:37:17;;;;;;;1.85;0.70;;;17.80;99.90;;;;;;4974580;28;20089;-81
2022/08/27 00:39:43;;;;;;;2.67;0.60;;;17.90;99.90;;;;;;4958690;28;20145;-81
2022/08/27 00:42:08;;;;;;;2.00;0.60;;;17.80;99.90;;;;;;4958355;28;20561;-81
2022/08/27 00:44:35;;;;;;;1.27;0.50;;;18.00;99.90;;;;;;4975210;28;20054;-81
2022/08/27 00:47:05;;;;;;;3.13;0.50;;;17.70;99.90;;;;;;4974466;28;20069;-81
2022/08/27 00:49:43;;;;;;;1.65;0.50;;;17.70;99.90;;;;;;4973733;28;20054;-81
2022/08/27 00:52:21;;;;;;;3.55;0.77;;;17.70;99.90;;;;;;4975407;28;20400;-81
2022/08/27 00:54:50;;;;;;;2.28;0.60;;;17.70;99.90;;;;;;4974342;28;20530;-81
2022/08/27 00:57:17;;;;;;;2.38;0.60;;;17.50;99.90;;;;;;4975201;28;20082;-82
2022/08/27 00:59:44;;;;;;;3.75;0.93;;;17.70;99.90;;;;;;4990172;28;20053;-81
2022/08/27 01:02:19;;;;;;;2.80;0.70;;;17.60;99.90;;;;;;4975320;28;20051;-82
2022/08/27 01:04:50;;;;;;;3.75;0.65;;;17.40;99.90;;;;;;4975271;28;20443;-83
2022/08/27 01:07:17;;;;;;;4.28;0.68;;;17.40;99.90;;;;;;4974854;28;20054;-84
2022/08/27 01:09:46;;;;;;;2.38;0.70;;;17.40;99.90;;;;;;4974313;28;20770;-82
2022/08/27 01:12:12;;;;;;;1.52;0.60;;;17.30;99.90;;;;;;4975164;28;20057;-82
2022/08/27 01:14:38;;;;;;;1.90;0.70;;;17.20;99.90;;;;;;4974118;28;20055;-82
2022/08/27 01:17:08;;;;;;;3.38;0.80;;;17.20;99.90;;;;;;4975045;28;20077;-82
2022/08/27 01:19:56;;;;;;;3.33;0.60;;;17.30;99.90;;;;;;4973470;28;20047;-82
2022/08/27 01:22:52;;;;;;;2.97;0.60;;;17.10;99.90;;;;;;4974796;28;20436;-82
2022/08/27 01:25:20;;;;;;;2.50;0.73;;;17.10;99.90;;;;;;4974839;28;20487;-81
2022/08/27 01:27:46;;;;;;;4.50;1.00;;;17.00;99.90;;;;;;4974623;28;20049;-82
2022/08/27 01:30:17;;;;;;;2.75;0.77;;;17.00;99.90;;;;;;4974598;28;20054;-81
2022/08/27 01:32:43;;;;;;;2.90;0.80;;;17.00;99.90;;;;;;4974123;28;20100;-81
2022/08/27 01:35:12;;;;;;;3.03;0.75;;;17.00;99.90;;;;;;4973544;28;20134;-82
2022/08/27 01:37:40;;;;;;;2.78;0.60;;;17.00;99.90;;;;;;4973809;28;20454;-83
2022/08/27 01:40:07;;;;;;;3.72;0.80;;;17.20;99.90;;;;;;4974569;28;20046;-83
2022/08/27 01:42:35;;;;;;;2.75;0.80;;;17.10;99.90;;;;;;4974494;28;20050;-83
2022/08/27 01:45:07;;;;;;;1.40;0.60;;;17.10;99.90;;;;;;4973457;28;20038;-82
2022/08/27 01:47:34;;;;;;;1.67;0.60;;;17.00;99.90;;;;;;4975149;28;20069;-82
2022/08/27 01:50:02;;;;;;;3.33;0.70;;;17.00;99.90;;;;;;4974215;28;20046;-83
2022/08/27 01:52:29;;;;;;;4.30;0.80;;;16.90;99.90;;;;;;4974616;28;20383;-87
2022/08/27 01:54:55;;;;;;;3.78;0.80;;;17.10;99.90;;;;;;4974687;28;20455;-83
2022/08/27 01:57:21;;;;;;;2.47;0.88;;;17.00;99.90;;;;;;4973091;28;20100;-83
2022/08/27 01:59:47;;;;;;;5.20;0.90;;;17.00;99.90;;;;;;4973542;28;20058;-83
2022/08/27 02:02:15;;;;;;;5.53;0.75;;;17.20;99.90;;;;;;4957429;28;20058;-82
2022/08/27 02:04:41;;;;;;;3.58;0.80;;;17.00;99.90;;;;;;4974314;28;20054;-83
2022/08/27 02:07:08;;;;;;;2.25;0.82;;;17.00;99.90;;;;;;4989395;28;20043;-82
2022/08/27 02:09:34;;;;;;;3.80;0.63;;;17.10;99.90;;;;;;4973292;28;20127;-83
2022/08/27 02:12:01;;;;;;;3.15;0.85;;;17.00;99.90;;;;;;4957076;28;20190;-82
2022/08/27 02:14:27;;;;;;;4.47;1.20;;;17.10;99.90;;;;;;4974635;28;20047;-82
2022/08/27 02:16:53;;;;;;;2.70;0.80;;;17.10;99.90;;;;;;4973380;28;20050;-82
2022/08/27 02:19:20;;;;;;;2.63;0.70;;;17.30;99.90;;;;;;4974181;28;20130;-83
2022/08/27 02:21:48;;;;;;;3.47;0.80;;;17.10;99.90;;;;;;4972989;28;20051;-83
2022/08/27 02:24:15;;;;;;;2.40;0.65;;;17.30;99.90;;;;;;4974130;28;20069;-83
2022/08/27 02:26:40;;;;;;;3.85;0.77;;;17.10;99.90;;;;;;4974018;28;20449;-81
2022/08/27 02:29:06;;;;;;;4.85;0.80;;;17.20;99.90;;;;;;4974302;28;20042;-83
2022/08/27 02:31:32;;;;;;;5.03;0.80;;;16.80;99.90;;;;;;4973393;28;20125;-84
2022/08/27 02:33:59;;;;;;;2.83;0.90;;;17.10;99.90;;;;;;4973281;28;20046;-83
2022/08/27 02:36:24;;;;;;;1.98;0.88;;;17.10;99.90;;;;;;4988812;28;20123;-82
2022/08/27 02:38:50;;;;;;;2.85;0.70;;;17.20;99.90;;;;;;4973991;28;20178;-82
2022/08/27 02:41:17;;;;;;;3.17;0.73;;;17.20;99.90;;;;;;4972991;28;20050;-82
2022/08/27 02:43:44;;;;;;;2.08;0.63;;;17.30;99.90;;;;;;4974103;28;20042;-83
2022/08/27 02:46:10;;;;;;;4.35;0.60;;;17.40;99.90;;;;;;4973083;28;20046;-83
2022/08/27 02:48:38;;;;;;;3.30;1.02;;;17.20;99.90;;;;;;4973411;28;20051;-82
2022/08/27 02:51:05;;;;;;;3.55;0.73;;;17.30;99.90;;;;;;4974232;28;20062;-83
2022/08/27 02:53:32;;;;;;;5.45;1.45;;;17.20;99.90;;;;;;4976259;28;20495;-83
2022/08/27 02:55:58;;;;;;;3.00;0.70;;;17.20;99.90;;;;;;4976602;28;20051;-82
2022/08/27 02:58:24;;;;;;;4.03;1.25;;;17.40;99.90;;;;;;4959873;28;20388;-83
2022/08/27 03:00:50;;;;;;;4.07;0.90;;;17.30;99.90;;;;;;4976420;28;20042;-83
2022/08/27 03:03:16;;;;;;;3.25;0.80;;;17.50;99.90;;;;;;4960368;28;20153;-82
2022/08/27 03:05:42;;;;;;;2.35;0.60;;;17.20;99.90;;;;;;4976487;28;20134;-83
2022/08/27 03:08:07;;;;;;;2.28;0.70;;;17.30;99.90;;;;;;4977105;28;20053;-82
2022/08/27 03:10:34;;;;;;;4.60;0.82;;;17.30;99.90;;;;;;4976030;28;20134;-82
2022/08/27 03:12:59;;;;;;;3.63;0.70;;;17.50;99.90;;;;;;4977053;28;20515;-83
2022/08/27 03:15:25;;;;;;;3.38;0.70;;;17.20;99.90;;;;;;4976894;28;20121;-82
2022/08/27 03:20:40;;;;;;;3.08;0.68;;;17.30;99.90;;;;;;4976463;28;20117;-82
2022/08/27 03:23:07;;;;;;;2.13;0.70;;;17.40;99.90;;;;;;4977095;28;20047;-82
2022/08/27 03:25:33;;;;;;;2.85;0.70;;;17.30;99.90;;;;;;4977374;28;20105;-81
2022/08/27 03:27:59;;;;;;;5.18;0.70;;;17.40;99.90;;;;;;4975911;28;20387;-82
2022/08/27 03:30:25;;;;;;;6.15;0.98;;;17.40;99.90;;;;;;4977013;28;20110;-82
2022/08/27 03:32:51;;;;;;;2.42;0.70;;;17.50;99.90;;;;;;4975755;28;20398;-82
2022/08/27 03:35:18;;;;;;;2.67;0.80;;;17.30;99.90;;;;;;4976570;28;20042;-82
2022/08/27 03:37:44;;;;;;;2.03;0.70;;;17.40;99.90;;;;;;4976698;28;20082;-82
2022/08/27 03:40:10;;;;;;;4.63;1.00;;;17.40;99.90;;;;;;4960055;28;20046;-82
2022/08/27 03:42:37;;;;;;;2.20;0.68;;;17.40;99.90;;;;;;4976732;28;20129;-83
2022/08/27 03:45:05;;;;;;;3.85;0.95;;;17.40;99.90;;;;;;4976583;28;20063;-82
2022/08/27 03:47:32;;;;;;;2.67;0.70;;;17.50;99.90;;;;;;4975479;28;20093;-82
2022/08/27 03:49:59;;;;;;;4.30;0.70;;;17.50;99.90;;;;;;4975639;28;20106;-82
2022/08/27 03:52:25;;;;;;;3.17;0.77;;;17.30;99.90;;;;;;4959829;28;20116;-82
2022/08/27 03:54:51;;;;;;;1.88;0.80;;;17.40;99.90;;;;;;4959356;28;20438;-82
2022/08/27 03:57:17;;;;;;;3.60;1.20;;;17.40;99.90;;;;;;4976415;28;20129;-82
2022/08/27 03:59:43;;;;;;;4.60;1.17;;;17.30;99.90;;;;;;4975316;28;20047;-83
2022/08/27 04:02:08;;;;;;;4.05;0.85;;;17.20;99.90;;;;;;4974229;28;20055;-82
2022/08/27 04:04:34;;;;;;;3.92;0.90;;;17.10;99.90;;;;;;4974818;28;20053;-82
2022/08/27 04:07:00;;;;;;;1.85;0.80;;;17.30;99.90;;;;;;4991071;28;20050;-82
2022/08/27 04:09:26;;;;;;;3.90;0.93;;;17.10;99.90;;;;;;4976141;28;20109;-83
2022/08/27 04:11:52;;;;;;;2.50;0.75;;;17.00;99.90;;;;;;4976552;28;20054;-82
2022/08/27 04:14:18;;;;;;;4.32;0.80;;;17.40;99.90;;;;;;4974894;28;20049;-81
2022/08/27 04:16:44;;;;;;;3.60;0.90;;;17.00;99.90;;;;;;4975802;28;20046;-82
2022/08/27 04:19:11;;;;;;;2.50;0.93;;;17.00;99.90;;;;;;4974182;28;20105;-82
2022/08/27 04:21:37;;;;;;;3.90;0.90;;;17.00;99.90;;;;;;4975003;28;20050;-82
2022/08/27 04:24:03;;;;;;;5.68;1.35;;;17.20;99.90;;;;;;4975956;28;20130;-82
2022/08/27 04:26:29;;;;;;;5.38;1.13;;;16.80;99.90;;;;;;4975734;28;20471;-82
2022/08/27 04:28:57;;;;;;;2.50;0.90;;;16.90;99.90;;;;;;4974873;28;20101;-82
2022/08/27 04:31:23;;;;;;;3.33;0.85;;;17.10;99.90;;;;;;4975765;28;20046;-82
2022/08/27 04:33:48;;;;;;;2.22;1.13;;;16.80;99.90;;;;;;4974508;28;20051;-82
2022/08/27 04:36:16;;;;;;;3.75;0.80;;;17.00;99.90;;;;;;4974660;28;20042;-82
2022/08/27 04:38:42;;;;;;;2.55;0.80;;;16.80;99.90;;;;;;4974664;28;20085;-83
2022/08/27 04:41:26;;;;;;;1.67;0.80;;;16.90;99.90;;;;;;4974579;28;20050;-83
2022/08/27 04:43:53;;;;;;;3.20;1.08;;;16.80;99.90;;;;;;4975635;28;20055;-83
2022/08/27 04:46:24;;;;;;;3.60;0.98;;;16.90;99.90;;;;;;4975218;28;20422;-82
2022/08/27 04:48:51;;;;;;;6.03;1.10;;;16.90;99.90;;;;;;4975017;28;20129;-82
2022/08/27 04:51:17;;;;;;;2.90;1.00;;;16.80;99.90;;;;;;4974265;28;20509;-82
2022/08/27 04:53:43;;;;;;;1.30;0.80;;;17.00;99.90;;;;;;4975286;28;20285;-82
2022/08/27 04:56:13;;;;;;;4.40;1.30;;;16.80;99.90;;;;;;4974119;28;20102;-83
2022/08/27 04:58:40;;;;;;;3.05;1.20;;;17.00;99.90;;;;;;4974384;28;20458;-82
2022/08/27 05:01:06;;;;;;;3.33;0.90;;;17.00;99.90;;;;;;4975198;28;20491;-82
2022/08/27 05:03:32;;;;;;;3.97;1.10;;;16.90;99.90;;;;;;4975218;28;20061;-83
2022/08/27 05:06:04;;;;;;;2.28;1.00;;;17.10;99.90;;;;;;4990240;28;20050;-83
2022/08/27 05:08:31;;;;;;;3.08;1.00;;;17.40;99.90;;;;;;4973868;28;20058;-82
2022/08/27 05:10:59;;;;;;;2.38;0.88;;;17.20;99.90;;;;;;4974005;28;20395;-83
2022/08/27 05:13:25;;;;;;;2.47;0.90;;;17.00;99.90;;;;;;4973350;28;20039;-82
2022/08/27 05:16:06;;;;;;;2.45;1.00;;;17.00;99.90;;;;;;4974989;28;20491;-82
2022/08/27 05:18:33;;;;;;;2.80;0.90;;;17.20;99.90;;;;;;4974644;28;20114;-81
2022/08/27 05:20:59;;;;;;;2.78;1.00;;;17.20;99.90;;;;;;4974790;28;20039;-81
2022/08/27 05:23:26;;;;;;;4.10;1.00;;;17.00;99.90;;;;;;4973514;28;20050;-82
2022/08/27 05:25:53;;;;;;;4.00;0.82;;;17.40;99.90;;;;;;4973586;28;20051;-82
2022/08/27 05:28:21;;;;;;;4.00;0.90;;;17.30;99.90;;;;;;4974982;28;20050;-82
2022/08/27 05:30:53;;;;;;;4.00;0.98;;;17.20;99.90;;;;;;4974891;28;20050;-82
2022/08/27 05:33:22;;;;;;;3.73;1.30;;;17.00;99.90;;;;;;4974805;28;20042;-82
2022/08/27 05:35:52;;;;;;;1.98;0.90;;;17.10;99.90;;;;;;4974591;28;20057;-81
2022/08/27 05:38:18;;;;;;;2.80;0.90;;;17.00;99.90;;;;;;4974433;28;20039;-82
2022/08/27 05:40:46;;;;;;;3.60;0.90;;;17.20;99.90;;;;;;4974357;28;20097;-82
2022/08/27 05:43:17;;;;;;;4.70;1.20;;;17.20;99.90;;;;;;4974621;28;20055;-82
2022/08/27 05:45:45;;;;;;;3.22;0.90;;;17.00;99.90;;;;;;4973890;28;20428;-82
2022/08/27 05:48:12;;;;;;;2.92;0.85;;;17.20;99.90;;;;;;4974629;28;20118;-82
2022/08/27 05:50:40;;;;;;;3.15;0.80;;;16.90;99.90;;;;;;4973888;28;20122;-82
2022/08/27 05:53:06;;;;;;;2.60;0.80;;;17.00;99.90;;;;;;4973250;28;20043;-81
2022/08/27 05:55:41;;;;;;;1.92;0.80;;;17.00;99.90;;;;;;4957489;28;20133;-82
2022/08/27 06:01:03;;;;;;;3.63;0.80;;;16.90;99.90;;;;;;4973400;28;20475;-82
2022/08/27 06:01:03;;;;;;;2.70;0.85;;;16.90;99.90;;;;;;4974489;28;20061;-81
2022/08/27 06:03:33;;;;;;;3.72;1.00;;;16.90;99.90;;;;;;4973244;28;20042;-81
2022/08/27 06:06:08;;;;;;;4.80;1.70;;;17.10;99.90;;;;;;4974542;28;20039;-83
2022/08/27 06:08:34;;;;;;;3.75;0.80;;;17.20;99.90;;;;;;4957554;28;20089;-81
2022/08/27 06:11:01;;;;;;;2.13;0.80;;;17.00;99.90;;;;;;4973334;28;20380;-81
2022/08/27 06:13:28;;;;;;;4.43;0.80;;;17.00;99.90;;;;;;4989436;28;20122;-82
2022/08/27 06:16:06;;;;;;;4.25;0.82;;;17.20;99.90;;;;;;4974319;28;20074;-82
2022/08/27 06:18:37;;;;;;;3.95;0.70;;;17.10;99.90;;;;;;4972544;28;20043;-82
2022/08/27 06:21:04;;;;;;;2.72;0.70;;;17.30;99.90;;;;;;4974281;28;20047;-82
2022/08/27 06:23:30;;;;;;;2.35;0.90;;;17.20;99.90;;;;;;4989160;28;20069;-81
2022/08/27 06:25:57;;;;;;;2.17;0.63;;;17.20;99.90;;;;;;4974349;28;20069;-82
2022/08/27 06:28:30;;;;;;;4.85;0.82;;;17.20;99.90;;;;;;4977778;28;20104;-81
2022/08/27 06:31:07;;;;;;;3.08;0.80;;;17.30;99.90;;;;;;4978111;28;20050;-82
2022/08/27 06:33:33;;;;;;;3.47;0.90;;;17.50;99.90;;;;;;4976966;28;20492;-82
2022/08/27 06:36:00;;;;;;;1.70;0.80;;;17.40;99.90;;;;;;4977819;28;20134;-83
2022/08/27 06:38:27;;;;;;;3.15;0.70;;;17.50;99.90;;;;;;4976609;28;20133;-83
2022/08/27 06:40:53;;;;;;;3.38;0.70;;;17.60;99.90;;;;;;4977679;28;20469;-81
2022/08/27 06:43:19;;;;;;;3.95;0.73;;;17.50;99.90;;;;;;4977725;28;20150;-83
2022/08/27 06:45:45;;;;;;;3.65;0.70;;;17.70;99.90;;;;;;4977855;28;20125;-83
2022/08/27 06:48:11;;;;;;;4.90;0.90;;;17.70;99.90;;;;;;4977594;28;20051;-84
2022/08/27 06:50:41;;;;;;;3.28;0.80;;;17.80;99.90;;;;;;4977039;28;20070;-84
2022/08/27 06:53:07;;;;;;;2.65;0.63;;;18.00;99.90;;;;;;4977617;28;20069;-85
2022/08/27 06:55:43;;;;;;;5.35;0.80;;;18.20;99.90;;;;;;4992442;28;20508;-83
2022/08/27 06:58:09;;;;;;;5.10;0.80;;;18.10;99.90;;;;;;4976551;28;20426;-83
2022/08/27 07:00:35;;;;;;;4.65;0.75;;;18.30;99.90;;;;;;4976280;28;20050;-82
2022/08/27 07:03:04;;;;;;;4.85;0.70;;;18.40;99.90;;;;;;4977567;28;20416;-84
2022/08/27 07:05:30;;;;;;;5.63;0.73;;;18.50;99.90;;;;;;4977446;28;20499;-84
2022/08/27 07:07:56;;;;;;;3.45;0.65;;;18.50;99.90;;;;;;4977343;28;20046;-83
2022/08/27 07:10:23;;;;;;;2.17;0.60;;;18.40;99.90;;;;;;4977183;28;20053;-83
2022/08/27 07:12:49;;;;;;;2.67;0.70;;;18.60;99.90;;;;;;4977481;28;20406;-85
2022/08/27 07:15:15;;;;;;;4.25;0.60;;;18.60;99.90;;;;;;4976927;28;20419;-83
2022/08/27 07:17:43;;;;;;;2.38;0.50;;;18.60;99.90;;;;;;4977251;28;20050;-83
2022/08/27 07:20:09;;;;;;;1.35;0.65;;;18.70;99.90;;;;;;4975824;28;20054;-83
2022/08/27 07:22:37;;;;;;;4.45;0.85;;;18.70;99.90;;;;;;4976113;28;20484;-83
2022/08/27 07:25:03;;;;;;;3.95;0.68;;;18.60;99.90;;;;;;4976787;28;20047;-85
2022/08/27 07:27:29;;;;;;;4.57;0.60;;;18.70;99.90;;;;;;4992180;28;20038;-85
2022/08/27 07:29:55;;;;;;;3.75;0.60;;;18.90;99.90;;;;;;4960100;28;20049;-82
2022/08/27 07:32:20;;;;;;;2.63;0.60;;;18.90;99.90;;;;;;4977034;28;20074;-84
2022/08/27 07:34:46;;;;;;;1.88;0.65;;;18.90;99.90;;;;;;4992001;28;20057;-86
2022/08/27 07:37:12;;;;;;;2.15;0.60;;;18.90;99.90;;;;;;4975726;28;20046;-81
2022/08/27 07:39:38;;;;;;;2.72;0.50;;;18.80;99.90;;;;;;4991921;28;20462;-83
2022/08/27 07:44:48;;;;;;;2.53;0.50;;;19.10;99.90;;;;;;4977016;28;20050;-84
2022/08/27 07:47:14;;;;;;;5.28;0.65;;;19.10;99.90;;;;;;4975472;28;20042;-84
2022/08/27 07:49:40;;;;;;;5.50;0.80;;;19.00;99.90;;;;;;4976242;28;20133;-82
2022/08/27 07:52:05;;;;;;;4.38;0.70;;;19.00;99.90;;;;;;4976383;28;20078;-82
2022/08/27 07:54:31;;;;;;;2.67;0.77;;;18.90;99.90;;;;;;4976165;28;20050;-81
2022/08/27 07:56:58;;;;;;;5.65;0.70;;;19.10;99.90;;;;;;4976573;28;20047;-82
2022/08/27 07:59:24;;;;;;;5.63;0.60;;;19.10;99.90;;;;;;4976517;28;20163;-80
2022/08/27 08:01:50;;;;;;;3.78;0.50;;;19.10;99.90;;;;;;4967598;28;20078;-81
2022/08/27 08:04:16;;;;;;;2.50;0.55;;;19.50;99.90;;;;;;4967136;28;20046;-84
2022/08/27 08:06:42;;;;;;;4.70;0.57;;;19.10;99.90;;;;;;4965740;28;20474;-84
2022/08/27 08:09:08;;;;;;;2.35;0.57;;;19.20;99.90;;;;;;4966234;28;20129;-82
2022/08/27 08:11:33;;;;;;;3.25;0.60;;;19.20;99.90;;;;;;4968322;28;20051;-83
2022/08/27 08:14:00;;;;;;;4.25;0.60;;;19.20;99.90;;;;;;4947880;28;20054;-82
2022/08/27 08:16:27;;;;;;;6.35;0.77;;;19.20;99.90;;;;;;4965373;28;20086;-82
2022/08/27 08:18:53;;;;;;;6.10;0.80;;;19.40;99.90;;;;;;4968009;28;20054;-81
2022/08/27 08:21:18;;;;;;;4.50;0.60;;;19.30;99.90;;;;;;4963076;28;20051;-82
2022/08/27 08:23:46;;;;;;;5.65;0.70;;;19.50;99.90;;;;;;4966356;28;20049;-83
2022/08/27 08:26:12;;;;;;;3.28;0.50;;;19.70;99.90;;;;;;4966736;28;20499;-82
2022/08/27 08:28:39;;;;;;;5.55;0.60;;;19.70;99.90;;;;;;4969069;28;20094;-84
2022/08/27 08:31:05;;;;;;;3.50;0.50;;;20.00;99.90;;;;;;4982371;28;20049;-82
2022/08/27 08:33:32;;;;;;;6.13;0.60;;;19.80;99.90;;;;;;4964732;28;20047;-82
2022/08/27 08:36:11;;;;;;;2.97;0.50;;;19.90;99.90;;;;;;4967621;28;20059;-82
2022/08/27 08:38:38;;;;;;;5.25;0.57;;;19.90;99.90;;;;;;4963561;28;20085;-85
2022/08/27 08:41:06;;;;;;;4.28;0.82;;;19.80;99.90;;;;;;4961891;28;20054;-84
2022/08/27 08:43:38;;;;;;;5.40;0.60;;;20.00;99.90;;;;;;4964290;28;20086;-81
2022/08/27 08:46:11;;;;;;;4.03;0.60;;;20.10;99.90;;;;;;4963627;28;20534;-82
2022/08/27 08:48:44;;;;;;;3.83;0.47;;;19.90;99.90;;;;;;4962756;28;20093;-83
2022/08/27 08:51:21;;;;;;;3.47;0.57;;;20.00;99.90;;;;;;4965874;28;20475;-82
2022/08/27 08:53:50;;;;;;;2.25;0.50;;;20.10;99.90;;;;;;4967226;28;20050;-84
2022/08/27 08:56:27;;;;;;;2.80;0.50;;;20.00;99.90;;;;;;4962663;28;20054;-81
2022/08/27 08:59:02;;;;;;;4.28;0.50;;;19.90;99.90;;;;;;4965430;28;20478;-82
2022/08/27 09:01:28;;;;;;;3.00;0.60;;;19.80;99.90;;;;;;4963113;28;20047;-80
2022/08/27 09:04:06;;;;;;;2.78;0.43;;;19.70;99.90;;;;;;4966062;28;20303;-83
2022/08/27 09:06:51;;;;;;;5.68;0.60;;;19.70;99.90;;;;;;4950209;28;20055;-83
2022/08/27 09:09:39;;;;;;;1.90;0.50;;;19.70;99.90;;;;;;4962990;28;20066;-79
2022/08/27 09:12:14;;;;;;;2.38;0.65;;;19.80;99.90;;;;;;4947129;28;20518;-80
2022/08/27 09:15:05;;;;;;;5.13;0.60;;;19.70;99.90;;;;;;4963624;28;20049;-79
2022/08/27 09:17:32;;;;;;;5.45;0.70;;;19.90;99.90;;;;;;4966219;28;20178;-83
2022/08/27 09:19:58;;;;;;;2.45;0.43;;;19.90;99.90;;;;;;4946807;28;20050;-82
2022/08/27 09:22:40;;;;;;;3.25;0.68;;;20.10;99.90;;;;;;4963373;28;20062;-82
2022/08/27 09:25:27;;;;;;;2.92;0.60;;;19.90;99.90;;;;;;4964478;28;20078;-79
2022/08/27 09:27:59;;;;;;;4.35;0.52;;;19.90;99.90;;;;;;4961358;28;20035;-81
2022/08/27 09:30:32;;;;;;;5.15;0.70;;;19.90;99.90;;;;;;4955360;28;20054;-84
2022/08/27 09:33:03;;;;;;;1.73;0.52;;;20.10;99.90;;;;;;4955519;28;20055;-81
2022/08/27 09:35:41;;;;;;;2.38;0.50;;;20.20;99.90;;;;;;4955169;28;20047;-81
2022/08/27 09:38:08;;;;;;;3.92;0.90;;;20.10;99.90;;;;;;4955642;28;20047;-83
2022/08/27 09:40:49;;;;;;;3.05;0.50;;;20.10;99.90;;;;;;4955252;28;20043;-81
2022/08/27 09:43:14;;;;;;;4.40;0.55;;;20.20;99.90;;;;;;4954589;29;20483;-85
2022/08/27 09:45:48;;;;;;;5.47;0.75;;;20.00;99.90;;;;;;4957559;29;20070;-84
2022/08/27 09:48:18;;;;;;;6.35;0.75;;;20.00;99.90;;;;;;4955457;28;20078;-82
2022/08/27 09:50:53;;;;;;;2.75;0.60;;;20.00;99.90;;;;;;4953913;29;20062;-84
2022/08/27 09:53:53;;;;;;;3.10;0.52;;;19.80;99.90;;;;;;4955684;28;20400;-80
2022/08/27 09:56:40;;;;;;;3.28;0.60;;;20.10;99.90;;;;;;4947916;29;20059;-81
2022/08/27 09:59:11;;;;;;;3.08;0.57;;;20.10;99.90;;;;;;4955127;28;20043;-78
2022/08/27 10:02:01;;;;;;;5.03;0.80;;;20.10;99.90;;;;;;4957892;28;20078;-83
2022/08/27 10:04:37;;;;;;;4.35;0.70;;;20.00;99.90;;;;;;4959619;28;20630;-83
2022/08/27 10:07:32;;;;;;;5.05;0.70;;;20.10;99.90;;;;;;4959239;28;20086;-82
2022/08/27 10:10:17;;;;;;;2.47;0.40;;;20.30;99.90;;;;;;4959486;28;20054;-82
2022/08/27 10:12:57;;;;;;;4.53;0.60;;;20.20;99.90;;;;;;4959308;28;20077;-81
2022/08/27 10:15:28;;;;;;;2.53;0.70;;;20.20;99.90;;;;;;4959038;28;20055;-82
2022/08/27 10:18:17;;;;;;;3.47;0.60;;;20.20;99.90;;;;;;4957934;29;20419;-81
2022/08/27 10:21:03;;;;;;;2.88;0.55;;;20.20;99.90;;;;;;4957576;29;20090;-80
2022/08/27 10:23:48;;;;;;;3.35;0.60;;;20.20;99.90;;;;;;4959046;28;20145;-84
2022/08/27 10:26:19;;;;;;;3.83;0.60;;;20.20;99.90;;;;;;4958780;28;20130;-79
2022/08/27 10:29:06;;;;;;;4.63;0.60;;;20.20;99.90;;;;;;4958976;28;20129;-82
2022/08/27 10:32:05;;;;;;;2.83;0.55;;;20.40;99.90;;;;;;4958965;28;20043;-81
2022/08/27 10:34:58;;;;;;;4.70;0.57;;;20.30;99.90;;;;;;4957378;28;20058;-80
2022/08/27 10:37:42;;;;;;;1.45;0.50;;;20.20;99.90;;;;;;4957521;29;20407;-80
2022/08/27 10:40:33;;;;;;;4.03;0.75;;;20.50;99.90;;;;;;4957656;29;20094;-83
2022/08/27 10:43:02;;;;;;;4.60;0.50;;;20.40;99.90;;;;;;4957434;28;20109;-79
2022/08/27 10:45:52;;;;;;;2.00;0.40;;;20.40;99.90;;;;;;4968642;28;20074;-82
2022/08/27 10:48:38;;;;;;;2.38;0.52;;;20.20;99.90;;;;;;4967346;28;20054;-83
2022/08/27 10:51:31;;;;;;;2.30;0.50;;;20.40;99.90;;;;;;4967794;28;20521;-79
2022/08/27 10:54:15;;;;;;;3.63;0.50;;;20.40;99.90;;;;;;4966478;28;20450;-78
2022/08/27 10:56:59;;;;;;;3.50;0.50;;;20.40;99.90;;;;;;4969518;28;20050;-79
2022/08/27 11:00:00;;;;;;;3.40;0.50;;;20.60;99.90;;;;;;4968748;28;20487;-80
2022/08/27 11:02:36;;;;;;;4.43;0.50;;;20.40;99.90;;;;;;4955046;28;20411;-80
2022/08/27 11:05:27;;;;;;;3.15;0.60;;;20.50;99.90;;;;;;4965613;28;20481;-79
2022/08/27 11:08:20;;;;;;;5.50;0.60;;;20.70;99.90;;;;;;4962626;28;20495;-78
2022/08/27 11:11:04;;;;;;;2.88;0.60;;;20.90;99.90;;;;;;4963393;28;20054;-79
2022/08/27 11:13:38;;;;;;;4.85;0.50;;;20.90;99.90;;;;;;4966268;28;20451;-79
2022/08/27 11:16:19;;;;;;;3.35;0.50;;;20.80;99.90;;;;;;4969127;28;20050;-81
2022/08/27 11:19:26;;;;;;;2.65;0.60;;;20.70;99.90;;;;;;4945758;28;20047;-81
2022/08/27 11:22:12;;;;;;;3.78;0.60;;;20.80;99.90;;;;;;4903784;29;20150;-77
2022/08/27 11:24:56;;;;;;;4.85;0.55;;;20.90;99.90;;;;;;4960498;28;20054;-79
2022/08/27 11:27:25;;;;;;;4.10;0.70;;;20.80;99.90;;;;;;4966469;28;20089;-80
2022/08/27 11:30:04;;;;;;;3.05;0.40;;;20.80;99.90;;;;;;4966554;28;20043;-79
2022/08/27 11:32:48;;;;;;;3.88;0.50;;;20.60;99.90;;;;;;4968052;28;20047;-77
2022/08/27 11:35:19;;;;;;;2.10;0.47;;;20.80;99.90;;;;;;4966940;28;20058;-81
2022/08/27 11:38:12;;;;;;;4.28;0.55;;;20.70;99.90;;;;;;4967910;28;20081;-81
2022/08/27 11:40:46;;;;;;;2.80;0.50;;;20.90;99.90;;;;;;4964755;28;20050;-80
2022/08/27 11:43:25;;;;;;;2.90;0.50;;;20.70;99.90;;;;;;4963684;28;20065;-79
2022/08/27 11:45:59;;;;;;;3.47;0.60;;;20.70;99.90;;;;;;4965828;28;20050;-82
2022/08/27 11:48:28;;;;;;;2.63;0.40;;;20.40;99.90;;;;;;4968646;28;20440;-80
2022/08/27 11:50:59;;;;;;;1.95;0.45;;;20.50;99.90;;;;;;4967174;28;20055;-83
2022/08/27 11:53:36;;;;;;;3.80;0.60;;;20.50;99.90;;;;;;4964706;28;20562;-80
2022/08/27 11:56:18;;;;;;;4.07;0.47;;;20.90;99.90;;;;;;4963895;28;20088;-79
2022/08/27 11:58:44;;;;;;;2.65;0.30;;;20.40;99.90;;;;;;4963767;28;20058;-78
2022/08/27 12:01:30;;;;;;;4.50;0.55;;;20.50;99.90;;;;;;4965902;28;20135;-80
2022/08/27 12:04:31;;;;;;;1.67;0.50;;;20.50;99.90;;;;;;4960212;28;20133;-82
2022/08/27 12:07:17;;;;;;;2.83;0.60;;;20.60;99.90;;;;;;4966498;28;20105;-80
2022/08/27 12:10:17;;;;;;;2.30;0.60;;;20.70;99.90;;;;;;4963707;28;20046;-78
2022/08/27 12:13:01;;;;;;;2.03;0.50;;;20.70;99.90;;;;;;4963767;28;20387;-79
2022/08/27 12:15:38;;;;;;;3.95;0.60;;;20.70;99.90;;;;;;4959141;28;20723;-79
2022/08/27 12:18:08;;;;;;;3.63;0.40;;;21.00;99.90;;;;;;4960544;28;21006;-79
2022/08/27 12:21:02;;;;;;;1.58;0.63;;;21.00;99.90;;;;;;4962775;28;20086;-81
2022/08/27 12:23:54;;;;;;;2.25;0.40;;;21.10;99.90;;;;;;4963124;28;20046;-79
2022/08/27 12:26:33;;;;;;;2.85;0.40;;;21.20;99.90;;;;;;4966266;28;20077;-79
2022/08/27 12:29:37;;;;;;;3.20;0.35;;;21.20;99.90;;;;;;4961442;28;20105;-81
2022/08/27 12:32:26;;;;;;;3.95;0.40;;;21.20;99.90;;;;;;4963368;28;20047;-79
2022/08/27 12:35:06;;;;;;;3.17;0.50;;;21.20;99.90;;;;;;4964454;28;20049;-80
2022/08/27 12:37:47;;;;;;;1.75;0.40;;;21.20;99.90;;;;;;4963067;28;20787;-80
2022/08/27 12:40:25;;;;;;;5.32;0.50;;;21.10;99.90;;;;;;4964790;28;20105;-83
2022/08/27 12:43:04;;;;;;;3.15;0.50;;;21.10;99.90;;;;;;4962663;28;20069;-81
2022/08/27 12:45:30;;;;;;;2.30;0.40;;;21.10;99.90;;;;;;4966672;28;20124;-79
2022/08/27 12:47:56;;;;;;;3.90;0.50;;;21.10;99.90;;;;;;4964082;28;20495;-81
2022/08/27 12:50:26;;;;;;;4.40;0.50;;;21.10;99.90;;;;;;4963672;28;20058;-78
2022/08/27 12:53:16;;;;;;;3.42;0.40;;;21.10;99.90;;;;;;4962586;28;20098;-80
2022/08/27 12:56:07;;;;;;;4.40;0.40;;;21.10;99.90;;;;;;4962094;28;20054;-81
2022/08/27 12:58:54;;;;;;;2.03;0.40;;;21.10;99.90;;;;;;4967056;28;20045;-80
2022/08/27 13:01:20;;;;;;;4.05;0.43;;;21.20;99.90;;;;;;4963395;28;20054;-78
2022/08/27 13:03:52;;;;;;;1.70;0.40;;;21.20;99.90;;;;;;4964615;28;20108;-81
2022/08/27 13:06:31;;;;;;;3.58;0.50;;;21.30;99.90;;;;;;4964331;28;20104;-82
2022/08/27 13:09:04;;;;;;;2.75;0.60;;;21.20;99.90;;;;;;4964093;28;20501;-79
2022/08/27 13:11:47;;;;;;;3.28;0.50;;;21.30;99.90;;;;;;4963180;28;20058;-79
2022/08/27 13:14:19;;;;;;;2.65;0.40;;;21.20;99.90;;;;;;4965437;28;20043;-79
2022/08/27 13:16:52;;;;;;;4.97;0.40;;;21.20;99.90;;;;;;4962777;28;20054;-81